createdAt,value
2024-02-20T00:02:20.840Z,68.30
2024-02-20T00:05:09.805Z,68.60
2024-02-20T00:08:03.335Z,69.20
2024-02-20T00:10:51.739Z,68.60
2024-02-20T00:13:39.336Z,68.70
2024-02-20T00:16:27.290Z,68.60
2024-02-20T00:19:14.941Z,69.00
2024-02-20T00:22:02.473Z,68.70
2024-02-20T00:24:49.753Z,68.70
2024-02-20T00:27:38.103Z,68.70
2024-02-20T00:30:25.735Z,68.80
2024-02-20T00:33:14.111Z,68.70
2024-02-20T00:36:02.307Z,69.00
2024-02-20T00:38:49.521Z,69.30
2024-02-20T00:41:36.969Z,69.10
2024-02-20T00:44:24.271Z,69.20
2024-02-20T00:47:12.014Z,69.20
2024-02-20T00:49:59.289Z,70.70
2024-02-20T00:52:46.608Z,69.70
2024-02-20T00:55:33.855Z,70.30
2024-02-20T00:58:22.197Z,70.50
2024-02-20T01:01:11.607Z,70.50
2024-02-20T01:03:59.130Z,70.00
2024-02-20T01:06:46.356Z,72.80
2024-02-20T01:09:33.843Z,71.20
2024-02-20T01:12:21.444Z,71.00
2024-02-20T01:15:09.491Z,70.70
2024-02-20T01:17:56.790Z,71.80
2024-02-20T01:20:44.142Z,71.80
2024-02-20T01:23:31.313Z,71.20
2024-02-20T01:26:18.574Z,70.80
2024-02-20T01:29:05.875Z,70.70
2024-02-20T01:31:54.465Z,70.50
2024-02-20T01:34:41.854Z,71.10
2024-02-20T01:37:31.017Z,71.10
2024-02-20T01:40:18.391Z,71.60
2024-02-20T01:43:06.599Z,70.90
2024-02-20T01:45:53.892Z,70.60
2024-02-20T01:48:41.319Z,70.70
2024-02-20T01:51:29.991Z,70.60
2024-02-20T01:54:17.555Z,70.60
2024-02-20T01:57:05.078Z,70.50
2024-02-20T01:59:53.052Z,70.70
2024-02-20T02:02:40.489Z,70.90
2024-02-20T02:05:28.096Z,71.00
2024-02-20T02:08:17.444Z,71.30
2024-02-20T02:11:04.894Z,71.00
2024-02-20T02:13:52.227Z,71.40
2024-02-20T02:16:40.267Z,71.40
2024-02-20T02:19:27.703Z,71.00
2024-02-20T02:22:15.030Z,71.00
2024-02-20T02:25:04.481Z,71.10
2024-02-20T02:27:51.880Z,71.10
2024-02-20T02:30:39.286Z,71.20
2024-02-20T02:33:26.747Z,71.30
2024-02-20T02:36:14.664Z,71.20
2024-02-20T02:39:02.024Z,71.30
2024-02-20T02:41:49.783Z,71.20
2024-02-20T02:44:37.341Z,70.90
2024-02-20T02:47:24.677Z,70.90
2024-02-20T02:50:12.279Z,70.90
2024-02-20T02:53:01.060Z,70.90
2024-02-20T02:55:48.869Z,71.00
2024-02-20T02:58:36.147Z,71.30
2024-02-20T03:01:24.153Z,71.30
2024-02-20T03:04:11.420Z,71.60
2024-02-20T03:06:59.736Z,71.50
2024-02-20T03:09:47.078Z,71.60
2024-02-20T03:12:36.175Z,71.60
2024-02-20T03:15:24.149Z,71.60
2024-02-20T03:18:12.035Z,72.00
2024-02-20T03:21:01.479Z,71.90
2024-02-20T03:23:48.683Z,73.90
2024-02-20T03:26:36.174Z,72.70
2024-02-20T03:29:25.376Z,72.30
2024-02-20T03:32:12.727Z,72.20
2024-02-20T03:35:00.536Z,72.20
2024-02-20T03:37:49.335Z,72.10
2024-02-20T03:40:36.647Z,72.70
2024-02-20T03:43:24.061Z,72.40
2024-02-20T03:46:13.367Z,72.40
2024-02-20T03:49:01.059Z,72.30
2024-02-20T03:51:48.356Z,72.50
2024-02-20T03:54:35.682Z,72.40
2024-02-20T03:57:22.865Z,72.70
2024-02-20T04:00:13.628Z,75.20
2024-02-20T04:03:01.031Z,73.90
2024-02-20T04:05:49.283Z,74.00
2024-02-20T04:08:36.793Z,74.70
2024-02-20T04:11:24.080Z,74.30
2024-02-20T04:14:11.327Z,74.30
2024-02-20T04:16:58.545Z,74.20
2024-02-20T04:19:45.881Z,74.80
2024-02-20T04:22:33.294Z,74.70
2024-02-20T04:25:20.834Z,74.60
2024-02-20T04:28:08.228Z,76.40
2024-02-20T04:30:55.468Z,76.20
2024-02-20T04:33:43.075Z,76.20
2024-02-20T04:36:30.424Z,75.70
2024-02-20T04:39:17.655Z,76.50
2024-02-20T04:42:05.478Z,76.10
2024-02-20T04:44:52.922Z,76.40
2024-02-20T04:47:40.488Z,77.30
2024-02-20T04:50:27.726Z,76.30
2024-02-20T04:53:14.977Z,77.30
2024-02-20T04:56:02.238Z,76.50
2024-02-20T04:58:49.537Z,76.10
2024-02-20T05:01:36.899Z,75.80
2024-02-20T05:04:25.050Z,75.90
2024-02-20T05:07:12.453Z,75.60
2024-02-20T05:09:59.977Z,75.70
2024-02-20T05:12:47.277Z,76.10
2024-02-20T05:15:34.511Z,75.60
2024-02-20T05:18:21.765Z,75.40
2024-02-20T05:21:09.909Z,75.40
2024-02-20T05:23:57.182Z,75.30
2024-02-20T05:26:44.525Z,75.50
2024-02-20T05:29:32.041Z,75.40
2024-02-20T05:32:21.412Z,75.40
2024-02-20T05:35:09.488Z,75.90
2024-02-20T05:37:56.808Z,75.20
2024-02-20T05:40:44.233Z,75.20
2024-02-20T05:43:31.806Z,75.20
2024-02-20T05:46:19.165Z,75.20
2024-02-20T05:49:06.881Z,75.20
2024-02-20T05:51:55.712Z,75.10
2024-02-20T05:54:42.953Z,75.10
2024-02-20T05:57:30.939Z,75.20
2024-02-20T06:00:18.360Z,74.90
2024-02-20T06:03:07.039Z,74.90
2024-02-20T06:05:54.363Z,75.00
2024-02-20T06:08:43.252Z,74.90
2024-02-20T06:11:30.587Z,75.10
2024-02-20T06:14:18.043Z,75.00
2024-02-20T06:17:05.761Z,74.90
2024-02-20T06:19:53.124Z,74.90
2024-02-20T06:22:40.596Z,75.00
2024-02-20T06:25:29.027Z,74.80
2024-02-20T06:28:18.406Z,74.60
2024-02-20T06:31:08.396Z,74.40
2024-02-20T06:33:56.194Z,74.30
2024-02-20T06:36:43.478Z,74.30
2024-02-20T06:39:30.796Z,74.00
2024-02-20T06:42:18.814Z,73.80
2024-02-20T06:45:07.493Z,74.10
2024-02-20T06:47:55.992Z,74.10
2024-02-20T06:50:43.405Z,73.90
2024-02-20T06:53:30.619Z,73.90
2024-02-20T06:56:17.858Z,73.80
2024-02-20T06:59:05.146Z,73.60
2024-02-20T07:01:53.234Z,73.50
2024-02-20T07:04:41.813Z,73.50
2024-02-20T07:07:29.313Z,73.50
2024-02-20T07:12:14.660Z,71.80
2024-02-20T07:15:09.130Z,72.00
2024-02-20T07:17:57.054Z,68.70
2024-02-20T07:20:44.457Z,64.40
2024-02-20T07:23:32.183Z,60.60
2024-02-20T07:26:19.560Z,58.20
2024-02-20T07:29:06.978Z,56.10
2024-02-20T07:31:56.425Z,55.00
2024-02-20T07:34:46.870Z,54.10
2024-02-20T07:37:38.216Z,53.20
2024-02-20T07:40:26.699Z,52.40
2024-02-20T07:43:14.134Z,51.70
2024-02-20T07:46:01.723Z,51.30
2024-02-20T07:48:49.297Z,50.90
2024-02-20T07:51:36.806Z,50.40
2024-02-20T07:54:24.444Z,50.10
2024-02-20T07:57:12.393Z,49.60
2024-02-20T08:00:00.209Z,49.40
2024-02-20T08:02:49.800Z,50.00
2024-02-20T08:05:37.754Z,48.90
2024-02-20T08:08:25.242Z,48.70
2024-02-20T08:11:13.812Z,48.60
2024-02-20T08:14:01.345Z,48.50
2024-02-20T08:16:51.812Z,48.30
2024-02-20T08:19:40.516Z,48.30
2024-02-20T08:22:27.910Z,48.40
2024-02-20T08:25:15.724Z,48.00
2024-02-20T08:28:03.125Z,47.80
2024-02-20T08:30:50.623Z,47.60
2024-02-20T08:33:38.118Z,47.50
2024-02-20T08:36:25.544Z,47.20
2024-02-20T08:39:12.886Z,47.10
2024-02-20T08:42:00.291Z,46.70
2024-02-20T08:44:47.809Z,46.90
2024-02-20T08:47:36.103Z,46.90
2024-02-20T08:50:23.720Z,46.80
2024-02-20T08:53:14.267Z,46.70
2024-02-20T08:56:01.673Z,46.60
2024-02-20T08:58:53.006Z,46.90
2024-02-20T09:01:43.474Z,46.70
2024-02-20T09:04:32.967Z,46.70
2024-02-20T09:07:20.572Z,46.30
2024-02-20T09:10:09.261Z,46.20
2024-02-20T09:12:56.873Z,46.00
2024-02-20T09:15:45.876Z,46.10
2024-02-20T09:18:37.019Z,45.70
2024-02-20T09:21:24.435Z,45.50
2024-02-20T09:24:12.650Z,45.40
2024-02-20T09:27:00.017Z,45.40
2024-02-20T09:29:47.611Z,45.40
2024-02-20T09:32:35.097Z,45.20
2024-02-20T09:35:22.520Z,44.80
2024-02-20T09:38:10.154Z,44.40
2024-02-20T09:41:01.049Z,43.70
2024-02-20T09:43:49.765Z,43.70
2024-02-20T09:46:53.525Z,43.60
2024-02-20T09:49:42.933Z,43.50
2024-02-20T09:52:32.856Z,43.60
2024-02-20T09:55:22.470Z,43.50
2024-02-20T09:58:10.006Z,43.60
2024-02-20T10:01:04.429Z,43.80
2024-02-20T10:03:57.381Z,44.30
2024-02-20T10:06:44.849Z,44.50
2024-02-20T10:09:33.030Z,44.30
2024-02-20T10:12:25.165Z,45.00
2024-02-20T10:15:16.575Z,45.60
2024-02-20T10:18:05.943Z,45.40
2024-02-20T10:21:04.000Z,44.50
2024-02-20T10:24:09.502Z,44.30
2024-02-20T10:27:03.438Z,44.10
2024-02-20T10:29:51.324Z,45.20
2024-02-20T10:32:39.349Z,44.60
2024-02-20T10:35:27.753Z,45.00
2024-02-20T10:38:20.524Z,45.20
2024-02-20T10:41:08.074Z,45.50
2024-02-20T10:43:56.235Z,45.70
2024-02-20T10:46:44.062Z,46.10
2024-02-20T10:49:33.582Z,46.20
2024-02-20T10:52:22.195Z,46.50
2024-02-20T10:55:23.234Z,46.20
2024-02-20T10:58:19.441Z,46.00
2024-02-20T11:01:14.584Z,46.00
2024-02-20T11:04:04.570Z,45.80
2024-02-20T11:06:56.490Z,45.60
2024-02-20T11:10:24.461Z,45.30
2024-02-20T11:13:30.644Z,45.20
2024-02-20T11:16:24.768Z,45.30
2024-02-20T11:19:12.514Z,45.40
2024-02-20T11:22:09.566Z,45.80
2024-02-20T11:25:15.842Z,45.70
2024-02-20T11:28:16.978Z,45.40
2024-02-20T11:31:07.202Z,45.30
2024-02-20T11:33:57.017Z,45.20
2024-02-20T11:36:46.066Z,45.00
2024-02-20T11:39:33.522Z,45.30
2024-02-20T11:42:21.151Z,44.10
2024-02-20T11:45:22.402Z,44.60
2024-02-20T11:48:15.750Z,44.20
2024-02-20T11:51:03.815Z,44.30
2024-02-20T11:53:55.539Z,44.00
2024-02-20T11:56:45.297Z,44.10
2024-02-20T11:59:32.901Z,44.30
2024-02-20T12:02:23.117Z,44.20
2024-02-20T12:05:10.739Z,44.30
2024-02-20T12:07:58.564Z,43.90
2024-02-20T12:10:48.255Z,43.70
2024-02-20T12:13:36.056Z,43.80
2024-02-20T12:16:28.722Z,43.60
2024-02-20T12:19:28.953Z,43.60
2024-02-20T12:22:19.969Z,43.60
2024-02-20T12:25:13.612Z,43.90
2024-02-20T12:28:01.696Z,44.00
2024-02-20T12:30:50.729Z,43.90
2024-02-20T12:33:38.603Z,43.00
2024-02-20T12:36:29.404Z,42.80
2024-02-20T12:39:17.639Z,43.20
2024-02-20T12:42:06.849Z,42.90
2024-02-20T12:44:54.904Z,43.00
2024-02-20T12:47:42.295Z,42.60
2024-02-20T12:50:29.741Z,42.40
2024-02-20T12:53:17.184Z,42.60
2024-02-20T12:56:05.246Z,41.90
2024-02-20T12:58:52.717Z,41.50
2024-02-20T13:01:40.201Z,41.30
2024-02-20T13:04:28.887Z,40.70
2024-02-20T13:07:17.667Z,40.10
2024-02-20T13:10:05.924Z,40.20
2024-02-20T13:12:55.845Z,40.60
2024-02-20T13:15:43.453Z,41.10
2024-02-20T13:18:31.142Z,41.70
2024-02-20T13:21:18.673Z,41.60
2024-02-20T13:24:08.537Z,41.90
2024-02-20T13:26:55.906Z,41.50
2024-02-20T13:29:43.579Z,41.90
2024-02-20T13:32:31.169Z,42.20
2024-02-20T13:35:20.340Z,42.20
2024-02-20T13:38:09.106Z,42.00
2024-02-20T13:40:57.952Z,42.00
2024-02-20T13:43:45.626Z,42.00
2024-02-20T13:46:33.719Z,42.40
2024-02-20T13:49:26.618Z,42.40
2024-02-20T13:52:14.050Z,42.30
2024-02-20T13:55:01.375Z,42.40
2024-02-20T13:57:48.717Z,41.90
2024-02-20T14:00:36.380Z,41.90
2024-02-20T14:03:26.027Z,42.50
2024-02-20T14:06:13.551Z,43.10
2024-02-20T14:09:02.679Z,43.40
2024-02-20T14:11:50.169Z,43.40
2024-02-20T14:14:37.588Z,43.30
2024-02-20T14:17:24.995Z,43.40
2024-02-20T14:20:12.619Z,43.20
2024-02-20T14:23:00.847Z,42.90
2024-02-20T14:25:48.805Z,43.00
2024-02-20T14:28:40.311Z,42.90
2024-02-20T14:31:28.486Z,42.90
2024-02-20T14:34:16.137Z,43.00
2024-02-20T14:37:08.106Z,43.00
2024-02-20T14:39:56.770Z,43.40
2024-02-20T14:42:44.196Z,44.30
2024-02-20T14:45:31.565Z,44.00
2024-02-20T14:48:19.276Z,44.20
2024-02-20T14:51:06.730Z,45.00
2024-02-20T14:53:57.088Z,45.40
2024-02-20T14:56:45.153Z,45.10
2024-02-20T14:59:32.498Z,45.10
2024-02-20T15:02:20.482Z,44.90
2024-02-20T15:05:11.023Z,45.40
2024-02-20T15:07:58.606Z,46.20
2024-02-20T15:10:46.130Z,46.70
2024-02-20T15:13:33.576Z,47.10
2024-02-20T15:16:23.996Z,47.40
2024-02-20T15:19:11.462Z,47.50
2024-02-20T15:21:58.910Z,47.60
2024-02-20T15:24:46.872Z,48.00
2024-02-20T15:27:34.278Z,48.10
2024-02-20T15:30:21.870Z,48.20
2024-02-20T15:33:09.445Z,48.50
2024-02-20T15:35:57.007Z,48.60
2024-02-20T15:38:44.462Z,48.80
2024-02-20T15:41:32.009Z,49.00
2024-02-20T15:44:19.398Z,49.20
2024-02-20T15:47:08.574Z,49.30
2024-02-20T15:49:56.098Z,49.40
2024-02-20T15:52:43.581Z,49.30
2024-02-20T15:55:32.570Z,49.30
2024-02-20T15:58:24.086Z,49.30
2024-02-20T16:01:12.057Z,49.10
2024-02-20T16:03:59.452Z,48.80
2024-02-20T16:06:46.885Z,48.60
2024-02-20T16:09:34.366Z,48.90
2024-02-20T16:12:21.801Z,49.90
2024-02-20T16:15:09.976Z,50.00
2024-02-20T16:17:57.522Z,50.50
2024-02-20T16:20:45.509Z,49.70
2024-02-20T16:23:32.949Z,50.20
2024-02-20T16:26:21.920Z,50.10
2024-02-20T16:29:09.366Z,50.50
2024-02-20T16:31:56.824Z,50.30
2024-02-20T16:34:44.388Z,50.90
2024-02-20T16:37:31.922Z,50.50
2024-02-20T16:40:21.020Z,51.30
2024-02-20T16:43:10.495Z,50.90
2024-02-20T16:45:58.160Z,51.10
2024-02-20T16:48:46.588Z,51.00
2024-02-20T16:51:34.289Z,51.10
2024-02-20T16:54:21.938Z,50.80
2024-02-20T16:57:11.714Z,50.80
2024-02-20T16:59:59.080Z,51.00
2024-02-20T17:02:46.505Z,50.60
2024-02-20T17:05:34.015Z,50.90
2024-02-20T17:08:25.485Z,51.00
2024-02-20T17:11:13.057Z,51.60
2024-02-20T17:14:01.187Z,51.40
2024-02-20T17:16:50.594Z,51.50
2024-02-20T17:19:39.135Z,51.80
2024-02-20T17:22:26.800Z,51.70
2024-02-20T17:25:14.730Z,52.30
2024-02-20T17:28:02.152Z,53.40
2024-02-20T17:30:50.179Z,53.70
2024-02-20T17:33:37.939Z,54.10
2024-02-20T17:36:25.203Z,54.90
2024-02-20T17:39:12.914Z,55.30
2024-02-20T17:42:00.204Z,55.70
2024-02-20T17:44:47.424Z,55.80
2024-02-20T17:47:34.877Z,56.30
2024-02-20T17:50:22.188Z,57.20
2024-02-20T17:53:09.529Z,56.60
2024-02-20T17:55:56.942Z,56.90
2024-02-20T17:58:45.350Z,58.40
2024-02-20T18:01:36.402Z,57.80
2024-02-20T18:04:23.843Z,58.20
2024-02-20T18:07:11.326Z,58.70
2024-02-20T18:09:58.670Z,60.30
2024-02-20T18:12:45.916Z,60.00
2024-02-20T18:15:33.329Z,62.10
2024-02-20T18:18:23.432Z,62.00
2024-02-20T18:21:10.771Z,62.10
2024-02-20T18:23:59.208Z,61.80
2024-02-20T18:26:46.625Z,62.10
2024-02-20T18:29:33.825Z,62.90
2024-02-20T18:32:21.180Z,63.70
2024-02-20T18:35:09.070Z,64.60
2024-02-20T18:37:57.072Z,63.50
2024-02-20T18:40:46.020Z,64.30
2024-02-20T18:43:33.399Z,66.00
2024-02-20T18:46:21.887Z,66.20
2024-02-20T18:49:10.894Z,66.00
2024-02-20T18:51:58.320Z,66.50
2024-02-20T18:54:46.232Z,66.10
2024-02-20T18:57:33.679Z,67.20
2024-02-20T19:00:21.361Z,66.80
2024-02-20T19:03:08.770Z,67.00
2024-02-20T19:05:56.097Z,67.80
2024-02-20T19:08:45.222Z,66.90
2024-02-20T19:11:32.743Z,66.20
2024-02-20T19:14:23.068Z,66.30
2024-02-20T19:17:10.409Z,66.80
2024-02-20T19:19:58.482Z,66.50
2024-02-20T19:22:47.381Z,68.70
2024-02-20T19:25:35.077Z,69.20
2024-02-20T19:28:22.351Z,67.80
2024-02-20T19:31:09.925Z,68.00
2024-02-20T19:33:57.418Z,68.00
2024-02-20T19:36:44.714Z,67.50
2024-02-20T19:39:33.009Z,67.20
2024-02-20T19:42:20.214Z,66.90
2024-02-20T19:45:08.298Z,67.40
2024-02-20T19:47:56.018Z,66.70
2024-02-20T19:50:46.321Z,67.90
2024-02-20T19:53:33.648Z,67.90
2024-02-20T19:56:21.148Z,66.90
2024-02-20T19:59:12.812Z,68.00
2024-02-20T20:02:00.237Z,67.00
2024-02-20T20:04:48.174Z,67.10
2024-02-20T20:07:35.761Z,68.00
2024-02-20T20:10:26.520Z,67.70
2024-02-20T20:13:13.869Z,67.50
2024-02-20T20:16:01.128Z,68.00
2024-02-20T20:18:51.190Z,67.50
2024-02-20T20:21:38.517Z,67.50
2024-02-20T20:24:25.935Z,69.30
2024-02-20T20:27:14.356Z,68.80
2024-02-20T20:30:01.781Z,68.30
2024-02-20T20:32:49.107Z,70.00
2024-02-20T20:35:36.898Z,69.70
2024-02-20T20:38:24.168Z,70.90
2024-02-20T20:41:11.479Z,71.40
2024-02-20T20:44:00.999Z,72.70
2024-02-20T20:46:48.607Z,72.10
2024-02-20T20:49:35.958Z,72.00
2024-02-20T20:52:23.804Z,73.50
2024-02-20T20:55:11.036Z,72.80
2024-02-20T20:57:58.414Z,72.40
2024-02-20T21:00:46.263Z,72.80
2024-02-20T21:03:33.766Z,72.50
2024-02-20T21:06:21.118Z,73.40
2024-02-20T21:09:11.404Z,72.10
2024-02-20T21:11:58.816Z,72.10
2024-02-20T21:14:47.309Z,72.60
2024-02-20T21:17:34.549Z,72.10
2024-02-20T21:20:21.803Z,72.10
2024-02-20T21:23:09.024Z,72.30
2024-02-20T21:25:56.415Z,73.40
2024-02-20T21:28:43.863Z,73.70
2024-02-20T21:31:31.303Z,73.60
2024-02-20T21:34:18.869Z,72.70
2024-02-20T21:37:06.779Z,72.90
2024-02-20T21:39:55.705Z,72.30
2024-02-20T21:42:44.783Z,72.50
2024-02-20T21:45:32.024Z,72.00
2024-02-20T21:48:19.426Z,72.00
2024-02-20T21:51:06.698Z,71.90
2024-02-20T21:53:55.925Z,71.80
2024-02-20T21:56:43.156Z,71.80
2024-02-20T21:59:30.741Z,71.80
2024-02-20T22:02:18.191Z,71.60
2024-02-20T22:05:05.764Z,71.70
2024-02-20T22:07:53.637Z,71.70
2024-02-20T22:10:41.055Z,71.80
2024-02-20T22:13:29.098Z,71.70
2024-02-20T22:16:16.529Z,71.60
2024-02-20T22:19:09.312Z,71.70
2024-02-20T22:21:56.804Z,71.60
2024-02-20T22:24:44.044Z,71.50
2024-02-20T22:27:31.418Z,71.40
2024-02-20T22:30:21.421Z,71.50
2024-02-20T22:33:10.281Z,71.30
2024-02-20T22:35:57.603Z,71.50
2024-02-20T22:38:45.339Z,71.70
2024-02-20T22:41:32.553Z,72.40
2024-02-20T22:44:21.120Z,72.60
2024-02-20T22:47:09.302Z,72.30
2024-02-20T22:49:56.715Z,71.90
2024-02-20T22:52:44.479Z,72.10
2024-02-20T22:55:32.821Z,72.00
2024-02-20T22:58:20.093Z,71.70
2024-02-20T23:01:07.392Z,72.30
2024-02-20T23:03:54.639Z,72.00
2024-02-20T23:06:44.995Z,72.40
2024-02-20T23:09:32.338Z,72.10
2024-02-20T23:12:19.596Z,72.40
2024-02-20T23:15:10.319Z,72.30
2024-02-20T23:17:57.641Z,72.50
2024-02-20T23:20:45.050Z,72.80
2024-02-20T23:23:32.288Z,72.50
2024-02-20T23:26:19.687Z,73.20
2024-02-20T23:29:07.053Z,72.90
2024-02-20T23:31:54.348Z,73.90
2024-02-20T23:34:41.693Z,73.20
2024-02-20T23:37:29.005Z,73.10
2024-02-20T23:40:16.596Z,73.20
2024-02-20T23:43:03.999Z,73.40
2024-02-20T23:45:51.332Z,73.30
2024-02-20T23:48:38.983Z,73.90
2024-02-20T23:51:26.374Z,73.80
2024-02-20T23:54:13.552Z,73.20
2024-02-20T23:57:00.936Z,73.10
2024-02-20T23:59:48.320Z,75.50
